sensor_id;sensor_type;location;lat;lon;timestamp;temperature;humidity
37984;DHT22;64625;50.882;4.376;2023-04-06T00:02:08;10.20;77.70
37984;DHT22;64625;50.882;4.376;2023-04-06T00:04:34;10.20;77.50
37984;DHT22;64625;50.882;4.376;2023-04-06T00:06:59;10.20;77.40
37984;DHT22;64625;50.882;4.376;2023-04-06T00:09:25;10.20;77.50
37984;DHT22;64625;50.882;4.376;2023-04-06T00:11:51;10.10;77.30
37984;DHT22;64625;50.882;4.376;2023-04-06T00:14:17;10.10;76.70
37984;DHT22;64625;50.882;4.376;2023-04-06T00:16:43;10.10;76.80
37984;DHT22;64625;50.882;4.376;2023-04-06T00:19:09;10.10;76.80
37984;DHT22;64625;50.882;4.376;2023-04-06T00:21:34;10.10;76.90
37984;DHT22;64625;50.882;4.376;2023-04-06T00:24:01;10.10;76.90
37984;DHT22;64625;50.882;4.376;2023-04-06T00:26:26;10.10;77.20
37984;DHT22;64625;50.882;4.376;2023-04-06T00:28:52;10.00;77.20
37984;DHT22;64625;50.882;4.376;2023-04-06T00:31:18;10.00;77.30
37984;DHT22;64625;50.882;4.376;2023-04-06T00:33:44;10.00;77.30
37984;DHT22;64625;50.882;4.376;2023-04-06T00:36:10;10.00;77.50
37984;DHT22;64625;50.882;4.376;2023-04-06T00:38:35;10.00;77.70
37984;DHT22;64625;50.882;4.376;2023-04-06T00:41:04;10.10;78.20
37984;DHT22;64625;50.882;4.376;2023-04-06T00:43:29;10.00;78.50
37984;DHT22;64625;50.882;4.376;2023-04-06T00:45:55;10.00;79.20
37984;DHT22;64625;50.882;4.376;2023-04-06T00:48:22;9.90;81.30
37984;DHT22;64625;50.882;4.376;2023-04-06T00:50:48;9.90;81.80
37984;DHT22;64625;50.882;4.376;2023-04-06T00:53:13;9.80;82.00
37984;DHT22;64625;50.882;4.376;2023-04-06T00:55:41;9.80;82.20
37984;DHT22;64625;50.882;4.376;2023-04-06T00:58:07;9.70;82.30
37984;DHT22;64625;50.882;4.376;2023-04-06T01:00:37;9.70;82.40
37984;DHT22;64625;50.882;4.376;2023-04-06T01:03:04;9.70;82.40
37984;DHT22;64625;50.882;4.376;2023-04-06T01:05:37;9.70;82.40
37984;DHT22;64625;50.882;4.376;2023-04-06T01:08:06;9.70;82.60
37984;DHT22;64625;50.882;4.376;2023-04-06T01:10:32;9.70;82.70
37984;DHT22;64625;50.882;4.376;2023-04-06T01:12:58;9.60;82.70
37984;DHT22;64625;50.882;4.376;2023-04-06T01:15:24;9.60;83.10
37984;DHT22;64625;50.882;4.376;2023-04-06T01:17:51;9.70;83.50
37984;DHT22;64625;50.882;4.376;2023-04-06T01:20:17;9.70;83.50
37984;DHT22;64625;50.882;4.376;2023-04-06T01:22:42;9.60;83.60
37984;DHT22;64625;50.882;4.376;2023-04-06T01:25:10;9.60;83.80
37984;DHT22;64625;50.882;4.376;2023-04-06T01:27:36;9.60;83.70
37984;DHT22;64625;50.882;4.376;2023-04-06T01:30:02;9.60;83.50
37984;DHT22;64625;50.882;4.376;2023-04-06T01:32:28;9.60;83.30
37984;DHT22;64625;50.882;4.376;2023-04-06T01:34:55;9.60;83.10
37984;DHT22;64625;50.882;4.376;2023-04-06T01:37:21;9.60;82.90
37984;DHT22;64625;50.882;4.376;2023-04-06T01:39:47;9.60;82.80
37984;DHT22;64625;50.882;4.376;2023-04-06T01:42:13;9.60;82.20
37984;DHT22;64625;50.882;4.376;2023-04-06T01:44:38;9.60;81.40
37984;DHT22;64625;50.882;4.376;2023-04-06T01:47:05;9.60;81.30
37984;DHT22;64625;50.882;4.376;2023-04-06T01:49:31;9.60;81.50
37984;DHT22;64625;50.882;4.376;2023-04-06T01:51:58;9.60;81.70
37984;DHT22;64625;50.882;4.376;2023-04-06T01:54:25;9.60;81.80
37984;DHT22;64625;50.882;4.376;2023-04-06T01:56:51;9.60;82.20
37984;DHT22;64625;50.882;4.376;2023-04-06T01:59:18;9.60;82.80
37984;DHT22;64625;50.882;4.376;2023-04-06T02:01:44;9.60;83.30
37984;DHT22;64625;50.882;4.376;2023-04-06T02:04:10;9.60;83.60
37984;DHT22;64625;50.882;4.376;2023-04-06T02:06:36;9.50;83.90
37984;DHT22;64625;50.882;4.376;2023-04-06T02:09:02;9.50;84.20
37984;DHT22;64625;50.882;4.376;2023-04-06T02:11:28;9.50;84.40
37984;DHT22;64625;50.882;4.376;2023-04-06T02:13:55;9.40;84.40
37984;DHT22;64625;50.882;4.376;2023-04-06T02:16:20;9.40;85.00
37984;DHT22;64625;50.882;4.376;2023-04-06T02:18:46;9.40;84.80
37984;DHT22;64625;50.882;4.376;2023-04-06T02:21:12;9.40;85.00
37984;DHT22;64625;50.882;4.376;2023-04-06T02:23:38;9.40;85.30
37984;DHT22;64625;50.882;4.376;2023-04-06T02:26:04;9.40;85.50
37984;DHT22;64625;50.882;4.376;2023-04-06T02:28:30;9.30;85.60
37984;DHT22;64625;50.882;4.376;2023-04-06T02:30:56;9.30;85.80
37984;DHT22;64625;50.882;4.376;2023-04-06T02:33:22;9.30;86.00
37984;DHT22;64625;50.882;4.376;2023-04-06T02:35:48;9.30;86.20
37984;DHT22;64625;50.882;4.376;2023-04-06T02:38:13;9.30;86.40
37984;DHT22;64625;50.882;4.376;2023-04-06T02:40:39;9.20;86.50
37984;DHT22;64625;50.882;4.376;2023-04-06T02:43:06;9.20;86.60
37984;DHT22;64625;50.882;4.376;2023-04-06T02:45:31;9.20;86.60
37984;DHT22;64625;50.882;4.376;2023-04-06T02:47:57;9.20;87.00
37984;DHT22;64625;50.882;4.376;2023-04-06T02:50:23;9.20;87.20
37984;DHT22;64625;50.882;4.376;2023-04-06T02:52:49;9.20;87.50
37984;DHT22;64625;50.882;4.376;2023-04-06T02:55:15;9.20;87.60
37984;DHT22;64625;50.882;4.376;2023-04-06T02:57:41;9.10;87.80
37984;DHT22;64625;50.882;4.376;2023-04-06T03:00:07;9.20;88.00
37984;DHT22;64625;50.882;4.376;2023-04-06T03:02:33;9.10;87.90
37984;DHT22;64625;50.882;4.376;2023-04-06T03:04:58;9.10;87.80
37984;DHT22;64625;50.882;4.376;2023-04-06T03:07:24;9.10;88.00
37984;DHT22;64625;50.882;4.376;2023-04-06T03:09:50;9.10;88.10
37984;DHT22;64625;50.882;4.376;2023-04-06T03:12:16;9.00;88.20
37984;DHT22;64625;50.882;4.376;2023-04-06T03:14:42;9.00;88.40
37984;DHT22;64625;50.882;4.376;2023-04-06T03:17:07;9.00;88.40
37984;DHT22;64625;50.882;4.376;2023-04-06T03:19:33;8.90;88.50
37984;DHT22;64625;50.882;4.376;2023-04-06T03:21:59;9.00;88.80
37984;DHT22;64625;50.882;4.376;2023-04-06T03:24:25;8.90;88.70
37984;DHT22;64625;50.882;4.376;2023-04-06T03:26:51;8.80;88.60
37984;DHT22;64625;50.882;4.376;2023-04-06T03:29:17;8.80;88.80
37984;DHT22;64625;50.882;4.376;2023-04-06T03:31:43;8.80;89.00
37984;DHT22;64625;50.882;4.376;2023-04-06T03:34:08;8.80;89.30
37984;DHT22;64625;50.882;4.376;2023-04-06T03:36:35;8.80;89.60
37984;DHT22;64625;50.882;4.376;2023-04-06T03:39:01;8.80;89.90
37984;DHT22;64625;50.882;4.376;2023-04-06T03:41:27;8.70;90.00
37984;DHT22;64625;50.882;4.376;2023-04-06T03:43:53;8.80;90.00
37984;DHT22;64625;50.882;4.376;2023-04-06T03:46:18;8.70;89.70
37984;DHT22;64625;50.882;4.376;2023-04-06T03:48:47;8.70;89.50
37984;DHT22;64625;50.882;4.376;2023-04-06T03:51:13;8.70;90.00
37984;DHT22;64625;50.882;4.376;2023-04-06T03:53:39;8.70;90.00
37984;DHT22;64625;50.882;4.376;2023-04-06T03:56:05;8.80;90.10
37984;DHT22;64625;50.882;4.376;2023-04-06T03:58:31;8.80;89.80
37984;DHT22;64625;50.882;4.376;2023-04-06T04:00:57;8.80;90.40
37984;DHT22;64625;50.882;4.376;2023-04-06T04:03:23;8.80;90.00
37984;DHT22;64625;50.882;4.376;2023-04-06T04:05:49;8.80;90.10
37984;DHT22;64625;50.882;4.376;2023-04-06T04:08:16;8.80;90.20
37984;DHT22;64625;50.882;4.376;2023-04-06T04:10:42;8.80;90.30
37984;DHT22;64625;50.882;4.376;2023-04-06T04:13:07;8.80;90.40
37984;DHT22;64625;50.882;4.376;2023-04-06T04:15:33;8.70;90.50
37984;DHT22;64625;50.882;4.376;2023-04-06T04:17:59;8.70;90.80
37984;DHT22;64625;50.882;4.376;2023-04-06T04:20:25;8.70;91.10
37984;DHT22;64625;50.882;4.376;2023-04-06T04:22:51;8.70;91.20
37984;DHT22;64625;50.882;4.376;2023-04-06T04:25:17;8.60;91.40
37984;DHT22;64625;50.882;4.376;2023-04-06T04:27:43;8.60;91.50
37984;DHT22;64625;50.882;4.376;2023-04-06T04:30:09;8.60;91.70
37984;DHT22;64625;50.882;4.376;2023-04-06T04:32:35;8.60;91.80
37984;DHT22;64625;50.882;4.376;2023-04-06T04:35:01;8.60;91.70
37984;DHT22;64625;50.882;4.376;2023-04-06T04:37:27;8.70;91.70
37984;DHT22;64625;50.882;4.376;2023-04-06T04:39:53;8.70;91.70
37984;DHT22;64625;50.882;4.376;2023-04-06T04:42:19;8.70;91.60
37984;DHT22;64625;50.882;4.376;2023-04-06T04:44:44;8.70;91.80
37984;DHT22;64625;50.882;4.376;2023-04-06T04:47:10;8.80;91.50
37984;DHT22;64625;50.882;4.376;2023-04-06T04:49:36;8.80;91.20
37984;DHT22;64625;50.882;4.376;2023-04-06T04:52:02;8.80;91.20
37984;DHT22;64625;50.882;4.376;2023-04-06T04:54:27;8.90;90.90
37984;DHT22;64625;50.882;4.376;2023-04-06T04:56:55;8.90;91.10
37984;DHT22;64625;50.882;4.376;2023-04-06T04:59:21;8.90;91.20
37984;DHT22;64625;50.882;4.376;2023-04-06T05:01:47;9.00;91.30
37984;DHT22;64625;50.882;4.376;2023-04-06T05:04:12;9.00;91.50
37984;DHT22;64625;50.882;4.376;2023-04-06T05:06:38;9.00;91.50
37984;DHT22;64625;50.882;4.376;2023-04-06T05:09:04;9.00;91.40
37984;DHT22;64625;50.882;4.376;2023-04-06T05:11:30;9.10;91.50
37984;DHT22;64625;50.882;4.376;2023-04-06T05:13:56;9.10;91.50
37984;DHT22;64625;50.882;4.376;2023-04-06T05:16:22;9.10;91.60
37984;DHT22;64625;50.882;4.376;2023-04-06T05:18:48;9.10;91.70
37984;DHT22;64625;50.882;4.376;2023-04-06T05:21:14;9.10;91.80
37984;DHT22;64625;50.882;4.376;2023-04-06T05:23:40;9.10;91.90
37984;DHT22;64625;50.882;4.376;2023-04-06T05:26:06;9.10;91.80
37984;DHT22;64625;50.882;4.376;2023-04-06T05:28:32;9.20;92.00
37984;DHT22;64625;50.882;4.376;2023-04-06T05:30:58;9.20;92.10
37984;DHT22;64625;50.882;4.376;2023-04-06T05:33:24;9.20;92.20
37984;DHT22;64625;50.882;4.376;2023-04-06T05:35:50;9.20;92.40
37984;DHT22;64625;50.882;4.376;2023-04-06T05:38:16;9.20;92.50
37984;DHT22;64625;50.882;4.376;2023-04-06T05:40:42;9.30;92.60
37984;DHT22;64625;50.882;4.376;2023-04-06T05:43:08;9.30;92.80
37984;DHT22;64625;50.882;4.376;2023-04-06T05:45:34;9.30;92.80
37984;DHT22;64625;50.882;4.376;2023-04-06T05:48:01;9.30;92.90
37984;DHT22;64625;50.882;4.376;2023-04-06T05:50:27;9.30;92.80
37984;DHT22;64625;50.882;4.376;2023-04-06T05:52:54;9.30;92.90
37984;DHT22;64625;50.882;4.376;2023-04-06T05:55:20;9.30;93.00
37984;DHT22;64625;50.882;4.376;2023-04-06T05:57:45;9.40;93.20
37984;DHT22;64625;50.882;4.376;2023-04-06T06:00:12;9.40;93.30
37984;DHT22;64625;50.882;4.376;2023-04-06T06:02:38;9.40;93.20
37984;DHT22;64625;50.882;4.376;2023-04-06T06:05:05;9.40;93.30
37984;DHT22;64625;50.882;4.376;2023-04-06T06:07:31;9.40;93.50
37984;DHT22;64625;50.882;4.376;2023-04-06T06:09:57;9.40;93.50
37984;DHT22;64625;50.882;4.376;2023-04-06T06:12:24;9.40;93.70
37984;DHT22;64625;50.882;4.376;2023-04-06T06:14:49;9.50;93.80
37984;DHT22;64625;50.882;4.376;2023-04-06T06:17:15;9.50;94.00
37984;DHT22;64625;50.882;4.376;2023-04-06T06:19:41;9.50;94.30
37984;DHT22;64625;50.882;4.376;2023-04-06T06:22:07;9.50;94.40
37984;DHT22;64625;50.882;4.376;2023-04-06T06:24:33;9.60;94.40
37984;DHT22;64625;50.882;4.376;2023-04-06T06:26:59;9.60;94.60
37984;DHT22;64625;50.882;4.376;2023-04-06T06:29:25;9.60;94.80
37984;DHT22;64625;50.882;4.376;2023-04-06T06:31:50;9.60;95.30
37984;DHT22;64625;50.882;4.376;2023-04-06T06:34:16;9.60;95.90
37984;DHT22;64625;50.882;4.376;2023-04-06T06:36:42;9.60;96.40
37984;DHT22;64625;50.882;4.376;2023-04-06T06:39:08;9.60;97.10
37984;DHT22;64625;50.882;4.376;2023-04-06T06:41:34;9.70;97.70
37984;DHT22;64625;50.882;4.376;2023-04-06T06:43:59;9.60;98.30
37984;DHT22;64625;50.882;4.376;2023-04-06T06:46:25;9.60;98.80
37984;DHT22;64625;50.882;4.376;2023-04-06T06:48:51;9.60;99.40
37984;DHT22;64625;50.882;4.376;2023-04-06T06:51:17;9.60;99.90
37984;DHT22;64625;50.882;4.376;2023-04-06T06:53:43;9.60;99.90
37984;DHT22;64625;50.882;4.376;2023-04-06T06:56:09;9.60;99.90
37984;DHT22;64625;50.882;4.376;2023-04-06T06:58:35;9.60;99.90
37984;DHT22;64625;50.882;4.376;2023-04-06T07:01:00;9.60;99.90
37984;DHT22;64625;50.882;4.376;2023-04-06T07:03:26;9.50;99.90
37984;DHT22;64625;50.882;4.376;2023-04-06T07:05:52;9.50;99.90
37984;DHT22;64625;50.882;4.376;2023-04-06T07:08:23;9.50;99.90
37984;DHT22;64625;50.882;4.376;2023-04-06T07:10:51;9.50;99.90
37984;DHT22;64625;50.882;4.376;2023-04-06T07:13:22;9.50;99.90
37984;DHT22;64625;50.882;4.376;2023-04-06T07:15:49;9.50;99.90
37984;DHT22;64625;50.882;4.376;2023-04-06T07:18:18;9.40;99.90
37984;DHT22;64625;50.882;4.376;2023-04-06T07:20:44;9.40;99.90
37984;DHT22;64625;50.882;4.376;2023-04-06T07:23:14;9.40;99.90
37984;DHT22;64625;50.882;4.376;2023-04-06T07:25:51;9.40;99.90
37984;DHT22;64625;50.882;4.376;2023-04-06T07:28:34;9.40;99.90
37984;DHT22;64625;50.882;4.376;2023-04-06T07:31:00;9.30;99.90
37984;DHT22;64625;50.882;4.376;2023-04-06T07:33:26;9.30;99.90
37984;DHT22;64625;50.882;4.376;2023-04-06T07:35:56;9.30;99.90
37984;DHT22;64625;50.882;4.376;2023-04-06T07:38:34;9.30;99.90
37984;DHT22;64625;50.882;4.376;2023-04-06T07:41:00;9.30;99.90
37984;DHT22;64625;50.882;4.376;2023-04-06T07:43:28;9.30;99.90
37984;DHT22;64625;50.882;4.376;2023-04-06T07:45:54;9.20;99.90
37984;DHT22;64625;50.882;4.376;2023-04-06T07:48:20;9.20;99.90
37984;DHT22;64625;50.882;4.376;2023-04-06T07:50:45;9.20;99.90
37984;DHT22;64625;50.882;4.376;2023-04-06T07:53:11;9.20;99.90
37984;DHT22;64625;50.882;4.376;2023-04-06T07:55:37;9.20;99.90
37984;DHT22;64625;50.882;4.376;2023-04-06T07:58:03;9.20;99.90
37984;DHT22;64625;50.882;4.376;2023-04-06T08:00:30;9.20;99.90
37984;DHT22;64625;50.882;4.376;2023-04-06T08:02:56;9.20;99.90
37984;DHT22;64625;50.882;4.376;2023-04-06T08:05:22;9.20;99.90
37984;DHT22;64625;50.882;4.376;2023-04-06T08:07:48;9.10;99.90
37984;DHT22;64625;50.882;4.376;2023-04-06T08:10:13;9.10;99.90
37984;DHT22;64625;50.882;4.376;2023-04-06T08:12:39;9.20;99.90
37984;DHT22;64625;50.882;4.376;2023-04-06T08:15:05;9.20;99.90
37984;DHT22;64625;50.882;4.376;2023-04-06T08:17:31;9.10;99.90
37984;DHT22;64625;50.882;4.376;2023-04-06T08:19:57;9.10;99.90
37984;DHT22;64625;50.882;4.376;2023-04-06T08:22:23;9.20;99.90
37984;DHT22;64625;50.882;4.376;2023-04-06T08:24:49;9.20;99.90
37984;DHT22;64625;50.882;4.376;2023-04-06T08:27:15;9.20;99.90
37984;DHT22;64625;50.882;4.376;2023-04-06T08:29:40;9.20;99.90
37984;DHT22;64625;50.882;4.376;2023-04-06T08:32:06;9.10;99.90
37984;DHT22;64625;50.882;4.376;2023-04-06T08:34:33;9.20;99.90
37984;DHT22;64625;50.882;4.376;2023-04-06T08:36:59;9.10;99.90
37984;DHT22;64625;50.882;4.376;2023-04-06T08:39:24;9.10;99.90
37984;DHT22;64625;50.882;4.376;2023-04-06T08:41:53;9.10;99.90
37984;DHT22;64625;50.882;4.376;2023-04-06T08:44:22;9.10;99.90
37984;DHT22;64625;50.882;4.376;2023-04-06T08:46:48;9.10;99.90
37984;DHT22;64625;50.882;4.376;2023-04-06T08:49:16;9.10;99.90
37984;DHT22;64625;50.882;4.376;2023-04-06T08:51:42;9.10;99.90
37984;DHT22;64625;50.882;4.376;2023-04-06T08:54:09;9.00;99.90
37984;DHT22;64625;50.882;4.376;2023-04-06T08:56:38;9.00;99.90
37984;DHT22;64625;50.882;4.376;2023-04-06T08:59:06;9.00;99.90
37984;DHT22;64625;50.882;4.376;2023-04-06T09:01:33;9.00;99.90
37984;DHT22;64625;50.882;4.376;2023-04-06T09:04:03;9.00;99.90
37984;DHT22;64625;50.882;4.376;2023-04-06T09:06:39;9.00;99.90
37984;DHT22;64625;50.882;4.376;2023-04-06T09:09:06;9.00;99.90
37984;DHT22;64625;50.882;4.376;2023-04-06T09:12:01;9.00;99.90
37984;DHT22;64625;50.882;4.376;2023-04-06T09:14:38;9.10;99.90
37984;DHT22;64625;50.882;4.376;2023-04-06T09:17:07;9.10;99.90
37984;DHT22;64625;50.882;4.376;2023-04-06T09:19:33;9.20;99.90
37984;DHT22;64625;50.882;4.376;2023-04-06T09:22:05;9.20;99.90
37984;DHT22;64625;50.882;4.376;2023-04-06T09:24:42;9.30;99.90
37984;DHT22;64625;50.882;4.376;2023-04-06T09:27:08;9.30;99.90
37984;DHT22;64625;50.882;4.376;2023-04-06T09:29:34;9.40;99.90
37984;DHT22;64625;50.882;4.376;2023-04-06T09:32:05;9.40;99.90
37984;DHT22;64625;50.882;4.376;2023-04-06T09:34:32;9.50;99.90
37984;DHT22;64625;50.882;4.376;2023-04-06T09:36:58;9.50;99.90
37984;DHT22;64625;50.882;4.376;2023-04-06T09:39:24;9.50;99.90
37984;DHT22;64625;50.882;4.376;2023-04-06T09:41:52;9.50;99.90
37984;DHT22;64625;50.882;4.376;2023-04-06T09:44:18;9.50;99.90
37984;DHT22;64625;50.882;4.376;2023-04-06T09:46:46;9.50;99.90
37984;DHT22;64625;50.882;4.376;2023-04-06T09:49:13;9.50;99.90
37984;DHT22;64625;50.882;4.376;2023-04-06T09:51:46;9.50;99.90
37984;DHT22;64625;50.882;4.376;2023-04-06T09:54:22;9.50;99.90
37984;DHT22;64625;50.882;4.376;2023-04-06T09:57:31;9.50;99.90
37984;DHT22;64625;50.882;4.376;2023-04-06T10:00:08;9.50;99.90
37984;DHT22;64625;50.882;4.376;2023-04-06T10:07:42;9.40;99.90
37984;DHT22;64625;50.882;4.376;2023-04-06T10:10:10;9.40;99.90
37984;DHT22;64625;50.882;4.376;2023-04-06T10:12:38;9.40;99.90
37984;DHT22;64625;50.882;4.376;2023-04-06T10:15:05;9.40;99.90
37984;DHT22;64625;50.882;4.376;2023-04-06T10:17:32;9.40;99.90
37984;DHT22;64625;50.882;4.376;2023-04-06T10:25:31;9.30;99.90
37984;DHT22;64625;50.882;4.376;2023-04-06T10:28:05;9.30;99.90
37984;DHT22;64625;50.882;4.376;2023-04-06T10:30:41;9.30;99.90
37984;DHT22;64625;50.882;4.376;2023-04-06T10:33:20;9.30;99.90
37984;DHT22;64625;50.882;4.376;2023-04-06T10:35:46;9.20;99.90
37984;DHT22;64625;50.882;4.376;2023-04-06T10:38:12;9.20;99.90
37984;DHT22;64625;50.882;4.376;2023-04-06T10:40:45;9.20;99.90
37984;DHT22;64625;50.882;4.376;2023-04-06T10:43:23;9.20;99.90
37984;DHT22;64625;50.882;4.376;2023-04-06T10:45:56;9.20;99.90
37984;DHT22;64625;50.882;4.376;2023-04-06T10:48:23;9.20;99.90
37984;DHT22;64625;50.882;4.376;2023-04-06T10:50:51;9.20;99.90
37984;DHT22;64625;50.882;4.376;2023-04-06T10:53:27;9.20;99.90
37984;DHT22;64625;50.882;4.376;2023-04-06T10:55:56;9.20;99.90
37984;DHT22;64625;50.882;4.376;2023-04-06T10:58:26;9.20;99.90
37984;DHT22;64625;50.882;4.376;2023-04-06T11:00:54;9.20;99.90
37984;DHT22;64625;50.882;4.376;2023-04-06T11:03:21;9.20;99.90
37984;DHT22;64625;50.882;4.376;2023-04-06T11:05:51;9.20;99.90
37984;DHT22;64625;50.882;4.376;2023-04-06T11:08:30;9.20;99.90
37984;DHT22;64625;50.882;4.376;2023-04-06T11:11:09;9.20;99.90
37984;DHT22;64625;50.882;4.376;2023-04-06T11:13:48;9.20;99.90
37984;DHT22;64625;50.882;4.376;2023-04-06T11:16:21;9.20;99.90
37984;DHT22;64625;50.882;4.376;2023-04-06T11:18:51;9.20;99.90
37984;DHT22;64625;50.882;4.376;2023-04-06T11:21:18;9.20;99.90
37984;DHT22;64625;50.882;4.376;2023-04-06T11:23:44;9.20;99.90
37984;DHT22;64625;50.882;4.376;2023-04-06T11:26:11;9.20;99.90
37984;DHT22;64625;50.882;4.376;2023-04-06T11:28:39;9.30;99.90
37984;DHT22;64625;50.882;4.376;2023-04-06T11:31:05;9.30;99.90
37984;DHT22;64625;50.882;4.376;2023-04-06T11:33:36;9.30;99.90
37984;DHT22;64625;50.882;4.376;2023-04-06T11:36:03;9.30;99.90
37984;DHT22;64625;50.882;4.376;2023-04-06T11:38:30;9.40;99.90
37984;DHT22;64625;50.882;4.376;2023-04-06T11:40:56;9.40;99.90
37984;DHT22;64625;50.882;4.376;2023-04-06T11:43:30;9.40;99.90
37984;DHT22;64625;50.882;4.376;2023-04-06T11:46:03;9.40;99.90
37984;DHT22;64625;50.882;4.376;2023-04-06T11:48:30;9.50;99.90
37984;DHT22;64625;50.882;4.376;2023-04-06T11:50:59;9.50;99.90
37984;DHT22;64625;50.882;4.376;2023-04-06T11:53:29;9.50;99.90
37984;DHT22;64625;50.882;4.376;2023-04-06T11:55:56;9.50;99.90
37984;DHT22;64625;50.882;4.376;2023-04-06T11:58:22;9.50;99.90
37984;DHT22;64625;50.882;4.376;2023-04-06T12:00:48;9.60;99.90
37984;DHT22;64625;50.882;4.376;2023-04-06T12:03:14;9.60;99.90
37984;DHT22;64625;50.882;4.376;2023-04-06T12:05:40;9.60;99.90
37984;DHT22;64625;50.882;4.376;2023-04-06T12:08:06;9.60;99.90
37984;DHT22;64625;50.882;4.376;2023-04-06T12:10:32;9.60;99.90
37984;DHT22;64625;50.882;4.376;2023-04-06T12:12:58;9.60;99.90
37984;DHT22;64625;50.882;4.376;2023-04-06T12:15:23;9.60;99.90
37984;DHT22;64625;50.882;4.376;2023-04-06T12:17:49;9.60;99.90
37984;DHT22;64625;50.882;4.376;2023-04-06T12:20:16;9.60;99.90
37984;DHT22;64625;50.882;4.376;2023-04-06T12:22:42;9.60;99.90
37984;DHT22;64625;50.882;4.376;2023-04-06T12:25:08;9.70;99.90
37984;DHT22;64625;50.882;4.376;2023-04-06T12:27:34;9.70;99.90
37984;DHT22;64625;50.882;4.376;2023-04-06T12:30:00;9.80;99.90
37984;DHT22;64625;50.882;4.376;2023-04-06T12:32:25;9.80;99.90
37984;DHT22;64625;50.882;4.376;2023-04-06T12:34:52;9.90;99.90
37984;DHT22;64625;50.882;4.376;2023-04-06T12:37:18;9.90;99.90
37984;DHT22;64625;50.882;4.376;2023-04-06T12:39:45;9.90;99.90
37984;DHT22;64625;50.882;4.376;2023-04-06T12:42:13;9.90;99.90
37984;DHT22;64625;50.882;4.376;2023-04-06T12:44:39;9.90;99.90
37984;DHT22;64625;50.882;4.376;2023-04-06T12:47:05;10.00;99.90
37984;DHT22;64625;50.882;4.376;2023-04-06T12:49:32;10.00;99.90
37984;DHT22;64625;50.882;4.376;2023-04-06T12:51:58;9.90;99.90
37984;DHT22;64625;50.882;4.376;2023-04-06T12:54:24;9.90;99.90
37984;DHT22;64625;50.882;4.376;2023-04-06T12:56:52;9.90;99.90
37984;DHT22;64625;50.882;4.376;2023-04-06T12:59:18;9.90;99.90
37984;DHT22;64625;50.882;4.376;2023-04-06T13:01:44;9.90;99.90
37984;DHT22;64625;50.882;4.376;2023-04-06T13:04:10;9.90;99.90
37984;DHT22;64625;50.882;4.376;2023-04-06T13:06:36;9.90;99.90
37984;DHT22;64625;50.882;4.376;2023-04-06T13:09:02;9.80;99.90
37984;DHT22;64625;50.882;4.376;2023-04-06T13:11:32;9.80;99.90
37984;DHT22;64625;50.882;4.376;2023-04-06T13:13:58;9.80;99.90
37984;DHT22;64625;50.882;4.376;2023-04-06T13:16:24;9.80;99.90
37984;DHT22;64625;50.882;4.376;2023-04-06T13:18:50;9.80;99.90
37984;DHT22;64625;50.882;4.376;2023-04-06T13:21:16;9.70;99.90
37984;DHT22;64625;50.882;4.376;2023-04-06T13:23:43;9.70;99.90
37984;DHT22;64625;50.882;4.376;2023-04-06T13:26:09;9.70;99.90
37984;DHT22;64625;50.882;4.376;2023-04-06T13:28:36;9.70;99.90
37984;DHT22;64625;50.882;4.376;2023-04-06T13:31:04;9.70;99.90
37984;DHT22;64625;50.882;4.376;2023-04-06T13:33:30;9.70;99.90
37984;DHT22;64625;50.882;4.376;2023-04-06T13:35:57;9.70;99.90
37984;DHT22;64625;50.882;4.376;2023-04-06T13:38:23;9.70;99.90
37984;DHT22;64625;50.882;4.376;2023-04-06T13:40:51;9.70;99.90
37984;DHT22;64625;50.882;4.376;2023-04-06T13:43:18;9.70;99.90
37984;DHT22;64625;50.882;4.376;2023-04-06T13:45:50;9.70;99.90
37984;DHT22;64625;50.882;4.376;2023-04-06T13:48:16;9.70;99.90
37984;DHT22;64625;50.882;4.376;2023-04-06T13:50:42;9.70;99.90
37984;DHT22;64625;50.882;4.376;2023-04-06T13:53:08;9.70;99.90
37984;DHT22;64625;50.882;4.376;2023-04-06T13:55:34;9.80;99.90
37984;DHT22;64625;50.882;4.376;2023-04-06T13:58:01;9.80;99.90
37984;DHT22;64625;50.882;4.376;2023-04-06T14:00:27;9.80;99.90
37984;DHT22;64625;50.882;4.376;2023-04-06T14:02:55;9.80;99.90
37984;DHT22;64625;50.882;4.376;2023-04-06T14:05:21;9.80;99.90
37984;DHT22;64625;50.882;4.376;2023-04-06T14:07:49;9.80;99.90
37984;DHT22;64625;50.882;4.376;2023-04-06T14:10:15;9.80;99.90
37984;DHT22;64625;50.882;4.376;2023-04-06T14:12:42;9.80;99.90
37984;DHT22;64625;50.882;4.376;2023-04-06T14:15:11;9.80;99.90
37984;DHT22;64625;50.882;4.376;2023-04-06T14:17:37;9.80;99.90
37984;DHT22;64625;50.882;4.376;2023-04-06T14:20:10;9.80;99.90
37984;DHT22;64625;50.882;4.376;2023-04-06T14:22:40;9.80;99.90
37984;DHT22;64625;50.882;4.376;2023-04-06T14:25:10;9.80;99.90
37984;DHT22;64625;50.882;4.376;2023-04-06T14:27:39;9.80;99.90
37984;DHT22;64625;50.882;4.376;2023-04-06T14:30:05;9.80;99.90
37984;DHT22;64625;50.882;4.376;2023-04-06T14:32:31;9.80;99.90
37984;DHT22;64625;50.882;4.376;2023-04-06T14:34:57;9.80;99.90
37984;DHT22;64625;50.882;4.376;2023-04-06T14:37:23;9.80;99.90
37984;DHT22;64625;50.882;4.376;2023-04-06T14:39:49;9.80;99.90
37984;DHT22;64625;50.882;4.376;2023-04-06T14:42:15;9.80;99.90
37984;DHT22;64625;50.882;4.376;2023-04-06T14:44:41;9.80;99.90
37984;DHT22;64625;50.882;4.376;2023-04-06T14:47:10;9.80;99.90
37984;DHT22;64625;50.882;4.376;2023-04-06T14:49:36;9.80;99.90
37984;DHT22;64625;50.882;4.376;2023-04-06T14:52:02;9.80;99.90
37984;DHT22;64625;50.882;4.376;2023-04-06T14:54:28;9.80;99.90
37984;DHT22;64625;50.882;4.376;2023-04-06T14:56:54;9.80;99.90
37984;DHT22;64625;50.882;4.376;2023-04-06T14:59:20;9.90;99.90
37984;DHT22;64625;50.882;4.376;2023-04-06T15:01:45;9.90;99.90
37984;DHT22;64625;50.882;4.376;2023-04-06T15:04:11;9.90;99.90
37984;DHT22;64625;50.882;4.376;2023-04-06T15:06:37;10.00;99.90
37984;DHT22;64625;50.882;4.376;2023-04-06T15:09:03;10.00;99.90
37984;DHT22;64625;50.882;4.376;2023-04-06T15:11:29;10.00;99.90
37984;DHT22;64625;50.882;4.376;2023-04-06T15:13:55;10.10;99.90
37984;DHT22;64625;50.882;4.376;2023-04-06T15:16:20;10.10;99.90
37984;DHT22;64625;50.882;4.376;2023-04-06T15:18:46;10.10;99.90
37984;DHT22;64625;50.882;4.376;2023-04-06T15:21:12;10.20;99.90
37984;DHT22;64625;50.882;4.376;2023-04-06T15:23:38;10.20;99.90
37984;DHT22;64625;50.882;4.376;2023-04-06T15:26:04;10.20;99.90
37984;DHT22;64625;50.882;4.376;2023-04-06T15:28:30;10.20;99.90
37984;DHT22;64625;50.882;4.376;2023-04-06T15:30:56;10.30;99.90
37984;DHT22;64625;50.882;4.376;2023-04-06T15:33:23;10.30;99.90
37984;DHT22;64625;50.882;4.376;2023-04-06T15:35:49;10.40;99.90
37984;DHT22;64625;50.882;4.376;2023-04-06T15:38:15;10.40;99.90
37984;DHT22;64625;50.882;4.376;2023-04-06T15:40:46;10.40;99.90
37984;DHT22;64625;50.882;4.376;2023-04-06T15:43:13;10.40;99.90
37984;DHT22;64625;50.882;4.376;2023-04-06T15:45:39;10.50;99.90
37984;DHT22;64625;50.882;4.376;2023-04-06T15:48:06;10.50;99.90
37984;DHT22;64625;50.882;4.376;2023-04-06T15:50:33;10.60;99.90
37984;DHT22;64625;50.882;4.376;2023-04-06T15:52:59;10.50;99.90
37984;DHT22;64625;50.882;4.376;2023-04-06T15:55:25;10.60;99.90